sensor_id;sensor_type;location;lat;lon;timestamp;P1;durP1;ratioP1;P2;durP2;ratioP2
26953;SDS011;14508;50.924;11.600;2023-10-08T00:01:10;11.63;;;3.60;;
26953;SDS011;14508;50.924;11.600;2023-10-08T00:03:40;10.52;;;3.72;;
26953;SDS011;14508;50.924;11.600;2023-10-08T00:06:15;8.97;;;3.50;;
26953;SDS011;14508;50.924;11.600;2023-10-08T00:08:46;13.65;;;3.20;;
26953;SDS011;14508;50.924;11.600;2023-10-08T00:11:16;7.47;;;3.10;;
26953;SDS011;14508;50.924;11.600;2023-10-08T00:13:45;8.82;;;3.33;;
26953;SDS011;14508;50.924;11.600;2023-10-08T00:16:15;10.77;;;3.00;;
26953;SDS011;14508;50.924;11.600;2023-10-08T00:18:45;13.93;;;3.30;;
26953;SDS011;14508;50.924;11.600;2023-10-08T00:21:18;8.80;;;3.42;;
26953;SDS011;14508;50.924;11.600;2023-10-08T00:26:27;8.05;;;3.05;;
26953;SDS011;14508;50.924;11.600;2023-10-08T00:28:57;10.07;;;3.30;;
26953;SDS011;14508;50.924;11.600;2023-10-08T00:31:27;9.73;;;2.83;;
26953;SDS011;14508;50.924;11.600;2023-10-08T00:33:58;10.10;;;2.78;;
26953;SDS011;14508;50.924;11.600;2023-10-08T00:36:29;10.23;;;3.33;;
26953;SDS011;14508;50.924;11.600;2023-10-08T00:38:57;7.38;;;3.35;;
26953;SDS011;14508;50.924;11.600;2023-10-08T00:41:28;7.32;;;2.42;;
26953;SDS011;14508;50.924;11.600;2023-10-08T00:43:58;9.27;;;3.63;;
26953;SDS011;14508;50.924;11.600;2023-10-08T00:46:28;11.18;;;2.83;;
26953;SDS011;14508;50.924;11.600;2023-10-08T00:48:59;12.68;;;3.25;;
26953;SDS011;14508;50.924;11.600;2023-10-08T00:51:46;11.05;;;3.53;;
26953;SDS011;14508;50.924;11.600;2023-10-08T00:54:15;11.82;;;3.53;;
26953;SDS011;14508;50.924;11.600;2023-10-08T00:56:46;14.52;;;4.25;;
26953;SDS011;14508;50.924;11.600;2023-10-08T00:59:24;7.57;;;2.80;;
26953;SDS011;14508;50.924;11.600;2023-10-08T01:01:52;12.23;;;3.42;;
26953;SDS011;14508;50.924;11.600;2023-10-08T01:04:26;16.25;;;3.63;;
26953;SDS011;14508;50.924;11.600;2023-10-08T01:06:54;7.78;;;3.08;;
26953;SDS011;14508;50.924;11.600;2023-10-08T01:09:26;9.95;;;3.22;;
26953;SDS011;14508;50.924;11.600;2023-10-08T01:12:09;10.35;;;3.45;;
26953;SDS011;14508;50.924;11.600;2023-10-08T01:14:42;16.05;;;3.38;;
26953;SDS011;14508;50.924;11.600;2023-10-08T01:17:12;9.77;;;3.60;;
26953;SDS011;14508;50.924;11.600;2023-10-08T01:19:42;12.40;;;3.78;;
26953;SDS011;14508;50.924;11.600;2023-10-08T01:22:14;12.85;;;4.50;;
26953;SDS011;14508;50.924;11.600;2023-10-08T01:24:45;11.65;;;4.20;;
26953;SDS011;14508;50.924;11.600;2023-10-08T01:27:15;15.10;;;4.07;;
26953;SDS011;14508;50.924;11.600;2023-10-08T01:29:48;8.43;;;4.03;;
26953;SDS011;14508;50.924;11.600;2023-10-08T01:32:18;12.60;;;3.28;;
26953;SDS011;14508;50.924;11.600;2023-10-08T01:34:49;10.20;;;3.38;;
26953;SDS011;14508;50.924;11.600;2023-10-08T01:37:19;11.88;;;3.50;;
26953;SDS011;14508;50.924;11.600;2023-10-08T01:39:48;10.40;;;3.30;;
26953;SDS011;14508;50.924;11.600;2023-10-08T01:42:16;8.88;;;3.50;;
26953;SDS011;14508;50.924;11.600;2023-10-08T01:44:45;7.82;;;3.35;;
26953;SDS011;14508;50.924;11.600;2023-10-08T01:47:13;10.52;;;3.72;;
26953;SDS011;14508;50.924;11.600;2023-10-08T01:49:42;7.05;;;3.22;;
26953;SDS011;14508;50.924;11.600;2023-10-08T01:52:12;10.55;;;3.40;;
26953;SDS011;14508;50.924;11.600;2023-10-08T01:54:46;11.75;;;3.88;;
26953;SDS011;14508;50.924;11.600;2023-10-08T01:57:15;8.20;;;4.05;;
26953;SDS011;14508;50.924;11.600;2023-10-08T01:59:47;10.32;;;3.47;;
26953;SDS011;14508;50.924;11.600;2023-10-08T02:02:15;13.55;;;3.70;;
26953;SDS011;14508;50.924;11.600;2023-10-08T02:04:43;15.15;;;3.35;;
26953;SDS011;14508;50.924;11.600;2023-10-08T02:07:11;9.45;;;3.08;;
26953;SDS011;14508;50.924;11.600;2023-10-08T02:09:40;14.38;;;3.60;;
26953;SDS011;14508;50.924;11.600;2023-10-08T02:12:09;9.70;;;3.72;;
26953;SDS011;14508;50.924;11.600;2023-10-08T02:14:40;10.48;;;3.03;;
26953;SDS011;14508;50.924;11.600;2023-10-08T02:17:09;12.40;;;3.60;;
26953;SDS011;14508;50.924;11.600;2023-10-08T02:19:39;11.55;;;4.10;;
26953;SDS011;14508;50.924;11.600;2023-10-08T02:22:08;12.48;;;3.72;;
26953;SDS011;14508;50.924;11.600;2023-10-08T02:24:36;8.40;;;3.50;;
26953;SDS011;14508;50.924;11.600;2023-10-08T02:27:06;11.30;;;3.72;;
26953;SDS011;14508;50.924;11.600;2023-10-08T02:29:36;12.55;;;4.20;;
26953;SDS011;14508;50.924;11.600;2023-10-08T02:32:04;14.30;;;3.45;;
26953;SDS011;14508;50.924;11.600;2023-10-08T02:34:32;14.23;;;3.90;;
26953;SDS011;14508;50.924;11.600;2023-10-08T02:37:01;8.70;;;3.95;;
26953;SDS011;14508;50.924;11.600;2023-10-08T02:39:31;13.73;;;3.63;;
26953;SDS011;14508;50.924;11.600;2023-10-08T02:41:59;9.10;;;3.58;;
26953;SDS011;14508;50.924;11.600;2023-10-08T02:44:27;14.73;;;4.03;;
26953;SDS011;14508;50.924;11.600;2023-10-08T02:46:58;12.25;;;4.35;;
26953;SDS011;14508;50.924;11.600;2023-10-08T02:49:27;15.70;;;3.22;;
26953;SDS011;14508;50.924;11.600;2023-10-08T02:51:58;9.90;;;4.20;;
26953;SDS011;14508;50.924;11.600;2023-10-08T02:54:26;10.40;;;3.85;;
26953;SDS011;14508;50.924;11.600;2023-10-08T02:57:02;10.52;;;4.43;;
26953;SDS011;14508;50.924;11.600;2023-10-08T02:59:37;9.82;;;3.88;;
26953;SDS011;14508;50.924;11.600;2023-10-08T03:02:11;8.52;;;3.92;;
26953;SDS011;14508;50.924;11.600;2023-10-08T03:04:42;24.17;;;4.25;;
26953;SDS011;14508;50.924;11.600;2023-10-08T03:07:12;12.68;;;4.20;;
26953;SDS011;14508;50.924;11.600;2023-10-08T03:09:51;8.43;;;3.70;;
26953;SDS011;14508;50.924;11.600;2023-10-08T03:12:30;12.95;;;3.38;;
26953;SDS011;14508;50.924;11.600;2023-10-08T03:14:59;16.70;;;4.30;;
26953;SDS011;14508;50.924;11.600;2023-10-08T03:17:41;13.52;;;4.20;;
26953;SDS011;14508;50.924;11.600;2023-10-08T03:20:17;14.63;;;4.55;;
26953;SDS011;14508;50.924;11.600;2023-10-08T03:23:06;9.95;;;3.33;;
26953;SDS011;14508;50.924;11.600;2023-10-08T03:25:40;9.65;;;3.80;;
26953;SDS011;14508;50.924;11.600;2023-10-08T03:28:09;18.60;;;3.75;;
26953;SDS011;14508;50.924;11.600;2023-10-08T03:30:39;10.52;;;3.88;;
26953;SDS011;14508;50.924;11.600;2023-10-08T03:33:18;14.73;;;4.13;;
26953;SDS011;14508;50.924;11.600;2023-10-08T03:35:51;4.25;;;2.40;;
26953;SDS011;14508;50.924;11.600;2023-10-08T03:38:21;3.25;;;1.50;;
26953;SDS011;14508;50.924;11.600;2023-10-08T03:40:55;2.63;;;1.33;;
26953;SDS011;14508;50.924;11.600;2023-10-08T03:43:35;2.67;;;1.20;;
26953;SDS011;14508;50.924;11.600;2023-10-08T03:46:19;2.30;;;1.13;;
26953;SDS011;14508;50.924;11.600;2023-10-08T03:48:51;1.42;;;0.80;;
26953;SDS011;14508;50.924;11.600;2023-10-08T03:51:24;2.10;;;0.63;;
26953;SDS011;14508;50.924;11.600;2023-10-08T03:53:54;0.77;;;0.57;;
26953;SDS011;14508;50.924;11.600;2023-10-08T03:56:42;0.60;;;0.60;;
26953;SDS011;14508;50.924;11.600;2023-10-08T03:59:13;0.90;;;0.47;;
26953;SDS011;14508;50.924;11.600;2023-10-08T04:01:47;0.57;;;0.40;;
26953;SDS011;14508;50.924;11.600;2023-10-08T04:04:22;0.57;;;0.38;;
26953;SDS011;14508;50.924;11.600;2023-10-08T04:06:57;1.38;;;0.52;;
26953;SDS011;14508;50.924;11.600;2023-10-08T04:09:47;1.75;;;0.35;;
26953;SDS011;14508;50.924;11.600;2023-10-08T04:12:19;0.75;;;0.45;;
26953;SDS011;14508;50.924;11.600;2023-10-08T04:14:47;0.43;;;0.38;;
26953;SDS011;14508;50.924;11.600;2023-10-08T04:17:15;1.05;;;0.50;;
26953;SDS011;14508;50.924;11.600;2023-10-08T04:19:50;0.50;;;0.50;;
26953;SDS011;14508;50.924;11.600;2023-10-08T04:22:18;0.82;;;0.60;;
26953;SDS011;14508;50.924;11.600;2023-10-08T04:24:47;1.13;;;0.73;;
26953;SDS011;14508;50.924;11.600;2023-10-08T04:27:16;0.50;;;0.50;;
26953;SDS011;14508;50.924;11.600;2023-10-08T04:29:48;0.95;;;0.70;;
26953;SDS011;14508;50.924;11.600;2023-10-08T04:32:16;1.33;;;0.63;;
26953;SDS011;14508;50.924;11.600;2023-10-08T04:34:50;1.40;;;0.70;;
26953;SDS011;14508;50.924;11.600;2023-10-08T04:37:23;0.77;;;0.70;;
26953;SDS011;14508;50.924;11.600;2023-10-08T04:39:58;0.93;;;0.52;;
26953;SDS011;14508;50.924;11.600;2023-10-08T04:42:26;0.77;;;0.70;;
26953;SDS011;14508;50.924;11.600;2023-10-08T04:44:54;0.95;;;0.55;;
26953;SDS011;14508;50.924;11.600;2023-10-08T04:47:25;1.15;;;0.80;;
26953;SDS011;14508;50.924;11.600;2023-10-08T04:50:01;0.52;;;0.52;;
26953;SDS011;14508;50.924;11.600;2023-10-08T04:52:31;0.63;;;0.40;;
26953;SDS011;14508;50.924;11.600;2023-10-08T04:55:12;0.50;;;0.50;;
26953;SDS011;14508;50.924;11.600;2023-10-08T04:57:47;0.47;;;0.40;;
26953;SDS011;14508;50.924;11.600;2023-10-08T05:00:16;0.55;;;0.50;;
26953;SDS011;14508;50.924;11.600;2023-10-08T05:03:05;0.60;;;0.60;;
26953;SDS011;14508;50.924;11.600;2023-10-08T05:05:42;0.75;;;0.52;;
26953;SDS011;14508;50.924;11.600;2023-10-08T05:08:34;0.82;;;0.57;;
26953;SDS011;14508;50.924;11.600;2023-10-08T05:11:14;0.40;;;0.40;;
26953;SDS011;14508;50.924;11.600;2023-10-08T05:13:51;0.52;;;0.47;;
26953;SDS011;14508;50.924;11.600;2023-10-08T05:16:32;1.48;;;0.52;;
26953;SDS011;14508;50.924;11.600;2023-10-08T05:19:10;1.20;;;0.52;;
26953;SDS011;14508;50.924;11.600;2023-10-08T05:22:15;0.50;;;0.50;;
26953;SDS011;14508;50.924;11.600;2023-10-08T05:25:10;0.50;;;0.50;;
26953;SDS011;14508;50.924;11.600;2023-10-08T05:27:52;0.95;;;0.70;;
26953;SDS011;14508;50.924;11.600;2023-10-08T05:30:24;1.73;;;0.60;;
26953;SDS011;14508;50.924;11.600;2023-10-08T05:32:55;0.50;;;0.50;;
26953;SDS011;14508;50.924;11.600;2023-10-08T05:35:41;0.75;;;0.40;;
26953;SDS011;14508;50.924;11.600;2023-10-08T05:41:04;0.17;;;0.17;;
26953;SDS011;14508;50.924;11.600;2023-10-08T05:43:43;0.32;;;0.20;;
26953;SDS011;14508;50.924;11.600;2023-10-08T05:46:40;1.10;;;0.50;;
26953;SDS011;14508;50.924;11.600;2023-10-08T05:49:26;0.73;;;0.40;;
26953;SDS011;14508;50.924;11.600;2023-10-08T05:52:05;0.20;;;0.20;;
26953;SDS011;14508;50.924;11.600;2023-10-08T05:54:53;1.10;;;0.50;;
26953;SDS011;14508;50.924;11.600;2023-10-08T05:57:39;0.40;;;0.30;;
26953;SDS011;14508;50.924;11.600;2023-10-08T06:00:13;0.47;;;0.20;;
26953;SDS011;14508;50.924;11.600;2023-10-08T06:02:58;0.65;;;0.40;;
26953;SDS011;14508;50.924;11.600;2023-10-08T06:05:38;0.10;;;0.10;;
26953;SDS011;14508;50.924;11.600;2023-10-08T06:08:13;1.13;;;0.40;;
26953;SDS011;14508;50.924;11.600;2023-10-08T06:10:49;0.50;;;0.38;;
26953;SDS011;14508;50.924;11.600;2023-10-08T06:13:27;0.20;;;0.20;;
26953;SDS011;14508;50.924;11.600;2023-10-08T06:16:11;0.57;;;0.30;;
26953;SDS011;14508;50.924;11.600;2023-10-08T06:21:26;0.30;;;0.20;;
26953;SDS011;14508;50.924;11.600;2023-10-08T06:23:54;0.52;;;0.30;;
26953;SDS011;14508;50.924;11.600;2023-10-08T06:26:24;0.65;;;0.22;;
26953;SDS011;14508;50.924;11.600;2023-10-08T06:28:54;0.60;;;0.38;;
26953;SDS011;14508;50.924;11.600;2023-10-08T06:31:24;0.20;;;0.20;;
26953;SDS011;14508;50.924;11.600;2023-10-08T06:33:54;1.42;;;0.95;;
26953;SDS011;14508;50.924;11.600;2023-10-08T06:36:23;1.10;;;1.00;;
26953;SDS011;14508;50.924;11.600;2023-10-08T06:38:51;1.27;;;0.88;;
26953;SDS011;14508;50.924;11.600;2023-10-08T06:41:20;0.32;;;0.30;;
26953;SDS011;14508;50.924;11.600;2023-10-08T06:44:18;0.30;;;0.28;;
26953;SDS011;14508;50.924;11.600;2023-10-08T06:46:48;0.68;;;0.30;;
26953;SDS011;14508;50.924;11.600;2023-10-08T06:49:19;0.10;;;0.10;;
26953;SDS011;14508;50.924;11.600;2023-10-08T06:51:50;0.43;;;0.30;;
26953;SDS011;14508;50.924;11.600;2023-10-08T06:54:18;0.47;;;0.47;;
26953;SDS011;14508;50.924;11.600;2023-10-08T06:56:48;0.88;;;0.52;;
26953;SDS011;14508;50.924;11.600;2023-10-08T06:59:20;0.25;;;0.25;;
26953;SDS011;14508;50.924;11.600;2023-10-08T07:01:50;0.57;;;0.40;;
26953;SDS011;14508;50.924;11.600;2023-10-08T07:04:19;1.40;;;0.38;;
26953;SDS011;14508;50.924;11.600;2023-10-08T07:06:49;0.45;;;0.30;;
26953;SDS011;14508;50.924;11.600;2023-10-08T07:09:18;0.10;;;0.10;;
26953;SDS011;14508;50.924;11.600;2023-10-08T07:11:57;0.25;;;0.22;;
26953;SDS011;14508;50.924;11.600;2023-10-08T07:14:33;0.30;;;0.20;;
26953;SDS011;14508;50.924;11.600;2023-10-08T07:17:02;0.68;;;0.32;;
26953;SDS011;14508;50.924;11.600;2023-10-08T07:19:34;0.65;;;0.40;;
26953;SDS011;14508;50.924;11.600;2023-10-08T07:22:05;1.17;;;0.50;;
26953;SDS011;14508;50.924;11.600;2023-10-08T07:24:49;2.28;;;1.13;;
26953;SDS011;14508;50.924;11.600;2023-10-08T07:27:18;1.08;;;0.63;;
26953;SDS011;14508;50.924;11.600;2023-10-08T07:29:52;2.22;;;0.60;;
26953;SDS011;14508;50.924;11.600;2023-10-08T07:32:23;1.65;;;0.60;;
26953;SDS011;14508;50.924;11.600;2023-10-08T07:34:53;0.57;;;0.55;;
26953;SDS011;14508;50.924;11.600;2023-10-08T07:37:29;1.13;;;0.50;;
26953;SDS011;14508;50.924;11.600;2023-10-08T07:39:59;1.27;;;0.57;;
26953;SDS011;14508;50.924;11.600;2023-10-08T07:42:34;1.25;;;0.80;;
26953;SDS011;14508;50.924;11.600;2023-10-08T07:45:04;1.25;;;0.52;;
26953;SDS011;14508;50.924;11.600;2023-10-08T07:47:33;1.60;;;0.60;;
26953;SDS011;14508;50.924;11.600;2023-10-08T07:50:01;1.67;;;0.43;;
26953;SDS011;14508;50.924;11.600;2023-10-08T07:52:38;0.88;;;0.40;;
26953;SDS011;14508;50.924;11.600;2023-10-08T07:55:11;0.55;;;0.30;;
26953;SDS011;14508;50.924;11.600;2023-10-08T07:57:44;3.15;;;0.85;;
26953;SDS011;14508;50.924;11.600;2023-10-08T08:00:15;1.38;;;0.57;;
26953;SDS011;14508;50.924;11.600;2023-10-08T08:02:50;0.60;;;0.45;;
26953;SDS011;14508;50.924;11.600;2023-10-08T08:05:19;2.70;;;0.50;;
26953;SDS011;14508;50.924;11.600;2023-10-08T08:07:47;1.85;;;0.57;;
26953;SDS011;14508;50.924;11.600;2023-10-08T08:10:16;1.80;;;0.57;;
26953;SDS011;14508;50.924;11.600;2023-10-08T08:12:45;3.00;;;1.05;;
26953;SDS011;14508;50.924;11.600;2023-10-08T08:15:19;1.50;;;0.52;;
26953;SDS011;14508;50.924;11.600;2023-10-08T08:17:49;3.17;;;0.68;;
26953;SDS011;14508;50.924;11.600;2023-10-08T08:20:18;0.77;;;0.50;;
26953;SDS011;14508;50.924;11.600;2023-10-08T08:22:48;1.95;;;0.70;;
26953;SDS011;14508;50.924;11.600;2023-10-08T08:25:20;1.60;;;0.88;;
26953;SDS011;14508;50.924;11.600;2023-10-08T08:28:00;0.55;;;0.45;;
26953;SDS011;14508;50.924;11.600;2023-10-08T08:30:33;2.17;;;0.50;;
26953;SDS011;14508;50.924;11.600;2023-10-08T08:33:03;2.33;;;0.68;;
26953;SDS011;14508;50.924;11.600;2023-10-08T08:35:37;1.02;;;0.70;;
26953;SDS011;14508;50.924;11.600;2023-10-08T08:38:05;1.48;;;0.57;;
26953;SDS011;14508;50.924;11.600;2023-10-08T08:40:35;1.05;;;0.80;;
26953;SDS011;14508;50.924;11.600;2023-10-08T08:43:04;1.33;;;0.65;;
26953;SDS011;14508;50.924;11.600;2023-10-08T08:45:35;2.10;;;0.60;;
26953;SDS011;14508;50.924;11.600;2023-10-08T08:48:07;0.90;;;0.38;;
26953;SDS011;14508;50.924;11.600;2023-10-08T08:50:35;0.88;;;0.38;;
26953;SDS011;14508;50.924;11.600;2023-10-08T08:53:06;1.60;;;0.63;;
26953;SDS011;14508;50.924;11.600;2023-10-08T08:55:34;1.08;;;0.38;;
26953;SDS011;14508;50.924;11.600;2023-10-08T08:58:02;2.05;;;0.50;;
26953;SDS011;14508;50.924;11.600;2023-10-08T09:00:38;2.38;;;0.77;;
26953;SDS011;14508;50.924;11.600;2023-10-08T09:03:08;0.98;;;0.50;;
26953;SDS011;14508;50.924;11.600;2023-10-08T09:05:39;1.58;;;0.60;;
26953;SDS011;14508;50.924;11.600;2023-10-08T09:08:09;0.95;;;0.60;;
26953;SDS011;14508;50.924;11.600;2023-10-08T09:10:37;4.20;;;0.82;;
26953;SDS011;14508;50.924;11.600;2023-10-08T09:13:19;1.67;;;1.05;;
26953;SDS011;14508;50.924;11.600;2023-10-08T09:15:50;1.67;;;0.70;;
26953;SDS011;14508;50.924;11.600;2023-10-08T09:18:22;0.68;;;0.50;;
26953;SDS011;14508;50.924;11.600;2023-10-08T09:20:54;2.85;;;0.90;;
26953;SDS011;14508;50.924;11.600;2023-10-08T09:23:22;1.15;;;0.50;;
26953;SDS011;14508;50.924;11.600;2023-10-08T09:25:52;3.20;;;1.48;;
26953;SDS011;14508;50.924;11.600;2023-10-08T09:28:30;1.23;;;0.65;;
26953;SDS011;14508;50.924;11.600;2023-10-08T09:31:02;0.85;;;0.52;;
26953;SDS011;14508;50.924;11.600;2023-10-08T09:33:31;1.88;;;0.75;;
26953;SDS011;14508;50.924;11.600;2023-10-08T09:36:00;1.27;;;0.40;;
26953;SDS011;14508;50.924;11.600;2023-10-08T09:38:32;1.00;;;0.57;;
26953;SDS011;14508;50.924;11.600;2023-10-08T09:41:01;1.27;;;0.63;;
26953;SDS011;14508;50.924;11.600;2023-10-08T09:43:30;1.13;;;0.60;;
26953;SDS011;14508;50.924;11.600;2023-10-08T09:46:06;3.00;;;0.90;;
26953;SDS011;14508;50.924;11.600;2023-10-08T09:48:40;1.40;;;0.70;;
26953;SDS011;14508;50.924;11.600;2023-10-08T09:51:12;2.20;;;0.90;;
26953;SDS011;14508;50.924;11.600;2023-10-08T09:53:43;2.25;;;0.95;;
26953;SDS011;14508;50.924;11.600;2023-10-08T09:56:19;2.83;;;0.90;;
26953;SDS011;14508;50.924;11.600;2023-10-08T09:58:48;1.80;;;0.73;;
26953;SDS011;14508;50.924;11.600;2023-10-08T10:01:19;1.70;;;0.65;;
26953;SDS011;14508;50.924;11.600;2023-10-08T10:03:49;2.28;;;0.70;;
26953;SDS011;14508;50.924;11.600;2023-10-08T10:06:17;3.05;;;0.57;;
26953;SDS011;14508;50.924;11.600;2023-10-08T10:08:47;2.22;;;0.50;;
26953;SDS011;14508;50.924;11.600;2023-10-08T10:11:16;1.48;;;0.73;;
26953;SDS011;14508;50.924;11.600;2023-10-08T10:13:45;2.33;;;1.42;;
26953;SDS011;14508;50.924;11.600;2023-10-08T10:16:22;3.03;;;0.93;;
26953;SDS011;14508;50.924;11.600;2023-10-08T10:18:50;0.98;;;0.77;;
26953;SDS011;14508;50.924;11.600;2023-10-08T10:21:25;2.28;;;1.00;;
26953;SDS011;14508;50.924;11.600;2023-10-08T10:23:55;1.15;;;0.70;;
26953;SDS011;14508;50.924;11.600;2023-10-08T10:26:24;1.25;;;0.40;;
26953;SDS011;14508;50.924;11.600;2023-10-08T10:31:47;1.08;;;0.63;;
26953;SDS011;14508;50.924;11.600;2023-10-08T10:34:20;1.95;;;0.80;;
26953;SDS011;14508;50.924;11.600;2023-10-08T10:36:53;3.00;;;0.70;;
26953;SDS011;14508;50.924;11.600;2023-10-08T10:39:25;2.28;;;0.50;;
26953;SDS011;14508;50.924;11.600;2023-10-08T10:41:56;1.80;;;0.63;;
26953;SDS011;14508;50.924;11.600;2023-10-08T10:44:28;1.67;;;0.60;;
26953;SDS011;14508;50.924;11.600;2023-10-08T10:46:59;1.45;;;0.60;;
26953;SDS011;14508;50.924;11.600;2023-10-08T10:49:56;0.60;;;0.40;;
26953;SDS011;14508;50.924;11.600;2023-10-08T10:52:52;1.55;;;0.50;;
26953;SDS011;14508;50.924;11.600;2023-10-08T10:55:20;1.20;;;0.68;;
26953;SDS011;14508;50.924;11.600;2023-10-08T10:57:50;0.95;;;0.60;;
26953;SDS011;14508;50.924;11.600;2023-10-08T11:00:24;2.05;;;0.50;;
26953;SDS011;14508;50.924;11.600;2023-10-08T11:03:12;1.15;;;0.60;;
26953;SDS011;14508;50.924;11.600;2023-10-08T11:05:45;2.20;;;0.70;;
26953;SDS011;14508;50.924;11.600;2023-10-08T11:08:18;1.52;;;0.63;;
26953;SDS011;14508;50.924;11.600;2023-10-08T11:10:50;1.63;;;0.70;;
26953;SDS011;14508;50.924;11.600;2023-10-08T11:13:21;2.60;;;0.63;;
26953;SDS011;14508;50.924;11.600;2023-10-08T11:15:55;1.92;;;0.80;;
26953;SDS011;14508;50.924;11.600;2023-10-08T11:18:26;0.90;;;0.60;;
26953;SDS011;14508;50.924;11.600;2023-10-08T11:21:05;1.42;;;0.60;;
26953;SDS011;14508;50.924;11.600;2023-10-08T11:23:41;0.82;;;0.60;;
26953;SDS011;14508;50.924;11.600;2023-10-08T11:26:13;1.52;;;0.50;;
26953;SDS011;14508;50.924;11.600;2023-10-08T11:28:42;1.95;;;0.88;;
26953;SDS011;14508;50.924;11.600;2023-10-08T11:31:14;1.75;;;0.55;;
26953;SDS011;14508;50.924;11.600;2023-10-08T11:33:47;2.55;;;0.80;;
26953;SDS011;14508;50.924;11.600;2023-10-08T11:36:21;2.60;;;0.63;;
26953;SDS011;14508;50.924;11.600;2023-10-08T11:38:54;1.92;;;0.82;;
26953;SDS011;14508;50.924;11.600;2023-10-08T11:41:28;2.35;;;0.75;;
26953;SDS011;14508;50.924;11.600;2023-10-08T11:43:57;0.93;;;0.68;;
26953;SDS011;14508;50.924;11.600;2023-10-08T11:46:26;1.95;;;0.80;;
26953;SDS011;14508;50.924;11.600;2023-10-08T11:49:00;3.13;;;0.80;;
26953;SDS011;14508;50.924;11.600;2023-10-08T11:51:31;0.88;;;0.65;;
26953;SDS011;14508;50.924;11.600;2023-10-08T11:54:00;3.22;;;0.95;;
26953;SDS011;14508;50.924;11.600;2023-10-08T11:56:32;1.77;;;0.60;;
26953;SDS011;14508;50.924;11.600;2023-10-08T11:59:01;1.50;;;0.70;;
26953;SDS011;14508;50.924;11.600;2023-10-08T12:01:35;1.90;;;0.85;;
26953;SDS011;14508;50.924;11.600;2023-10-08T12:04:06;1.50;;;0.47;;
26953;SDS011;14508;50.924;11.600;2023-10-08T12:06:40;3.03;;;0.65;;
26953;SDS011;14508;50.924;11.600;2023-10-08T12:09:13;1.45;;;0.70;;
26953;SDS011;14508;50.924;11.600;2023-10-08T12:11:41;2.28;;;0.75;;
26953;SDS011;14508;50.924;11.600;2023-10-08T12:14:10;1.17;;;0.60;;
26953;SDS011;14508;50.924;11.600;2023-10-08T12:16:39;2.15;;;0.77;;
26953;SDS011;14508;50.924;11.600;2023-10-08T12:19:09;1.42;;;0.70;;
26953;SDS011;14508;50.924;11.600;2023-10-08T12:21:43;1.98;;;0.70;;
26953;SDS011;14508;50.924;11.600;2023-10-08T12:24:13;2.65;;;0.77;;
26953;SDS011;14508;50.924;11.600;2023-10-08T12:26:41;0.50;;;0.32;;
26953;SDS011;14508;50.924;11.600;2023-10-08T12:29:12;3.28;;;0.85;;
26953;SDS011;14508;50.924;11.600;2023-10-08T12:31:43;1.35;;;0.38;;
26953;SDS011;14508;50.924;11.600;2023-10-08T12:34:15;2.78;;;0.80;;
26953;SDS011;14508;50.924;11.600;2023-10-08T12:36:43;2.47;;;0.60;;
26953;SDS011;14508;50.924;11.600;2023-10-08T12:39:12;5.55;;;1.25;;
26953;SDS011;14508;50.924;11.600;2023-10-08T12:41:42;0.82;;;0.50;;
26953;SDS011;14508;50.924;11.600;2023-10-08T12:44:11;2.00;;;0.75;;
26953;SDS011;14508;50.924;11.600;2023-10-08T12:46:42;3.33;;;1.05;;
26953;SDS011;14508;50.924;11.600;2023-10-08T12:49:11;2.33;;;0.63;;
26953;SDS011;14508;50.924;11.600;2023-10-08T12:51:40;2.75;;;0.90;;
26953;SDS011;14508;50.924;11.600;2023-10-08T12:54:11;3.20;;;0.70;;
26953;SDS011;14508;50.924;11.600;2023-10-08T12:56:48;1.58;;;0.82;;
26953;SDS011;14508;50.924;11.600;2023-10-08T12:59:19;1.77;;;0.60;;
26953;SDS011;14508;50.924;11.600;2023-10-08T13:01:48;2.10;;;0.70;;
26953;SDS011;14508;50.924;11.600;2023-10-08T13:04:21;2.63;;;0.50;;
26953;SDS011;14508;50.924;11.600;2023-10-08T13:06:55;2.13;;;0.80;;
26953;SDS011;14508;50.924;11.600;2023-10-08T13:09:27;4.63;;;0.98;;
26953;SDS011;14508;50.924;11.600;2023-10-08T13:11:57;1.42;;;0.88;;
26953;SDS011;14508;50.924;11.600;2023-10-08T13:14:26;1.65;;;0.60;;
26953;SDS011;14508;50.924;11.600;2023-10-08T13:16:54;2.22;;;0.70;;
26953;SDS011;14508;50.924;11.600;2023-10-08T13:19:22;3.20;;;1.30;;
26953;SDS011;14508;50.924;11.600;2023-10-08T13:21:52;2.58;;;0.80;;
26953;SDS011;14508;50.924;11.600;2023-10-08T13:24:22;1.27;;;0.57;;
26953;SDS011;14508;50.924;11.600;2023-10-08T13:26:51;1.88;;;0.80;;
26953;SDS011;14508;50.924;11.600;2023-10-08T13:29:19;1.95;;;0.60;;
26953;SDS011;14508;50.924;11.600;2023-10-08T13:31:47;2.00;;;0.90;;
26953;SDS011;14508;50.924;11.600;2023-10-08T13:34:16;1.85;;;0.50;;
26953;SDS011;14508;50.924;11.600;2023-10-08T13:36:44;1.88;;;1.15;;
26953;SDS011;14508;50.924;11.600;2023-10-08T13:39:14;1.63;;;0.90;;
26953;SDS011;14508;50.924;11.600;2023-10-08T13:41:47;2.60;;;0.70;;
26953;SDS011;14508;50.924;11.600;2023-10-08T13:44:15;1.27;;;0.75;;
26953;SDS011;14508;50.924;11.600;2023-10-08T13:46:45;1.67;;;0.82;;
26953;SDS011;14508;50.924;11.600;2023-10-08T13:49:16;1.95;;;0.65;;
26953;SDS011;14508;50.924;11.600;2023-10-08T13:51:45;1.90;;;0.80;;
26953;SDS011;14508;50.924;11.600;2023-10-08T13:54:22;2.97;;;0.98;;
26953;SDS011;14508;50.924;11.600;2023-10-08T13:56:56;1.95;;;0.70;;
26953;SDS011;14508;50.924;11.600;2023-10-08T13:59:26;1.83;;;0.65;;
26953;SDS011;14508;50.924;11.600;2023-10-08T14:01:58;0.75;;;0.50;;
26953;SDS011;14508;50.924;11.600;2023-10-08T14:04:28;3.45;;;0.52;;
26953;SDS011;14508;50.924;11.600;2023-10-08T14:06:58;3.33;;;0.90;;
26953;SDS011;14508;50.924;11.600;2023-10-08T14:09:26;1.58;;;0.77;;
26953;SDS011;14508;50.924;11.600;2023-10-08T14:12:04;2.63;;;0.60;;
26953;SDS011;14508;50.924;11.600;2023-10-08T14:14:34;1.20;;;0.57;;
26953;SDS011;14508;50.924;11.600;2023-10-08T14:17:07;0.88;;;0.35;;
26953;SDS011;14508;50.924;11.600;2023-10-08T14:19:41;1.38;;;0.80;;
26953;SDS011;14508;50.924;11.600;2023-10-08T14:22:18;0.98;;;0.50;;
26953;SDS011;14508;50.924;11.600;2023-10-08T14:24:49;1.15;;;0.50;;
26953;SDS011;14508;50.924;11.600;2023-10-08T14:27:26;2.53;;;0.70;;
26953;SDS011;14508;50.924;11.600;2023-10-08T14:29:58;2.05;;;0.70;;
26953;SDS011;14508;50.924;11.600;2023-10-08T14:32:27;1.95;;;0.80;;
26953;SDS011;14508;50.924;11.600;2023-10-08T14:34:58;4.20;;;1.15;;
26953;SDS011;14508;50.924;11.600;2023-10-08T14:37:44;1.75;;;1.05;;
26953;SDS011;14508;50.924;11.600;2023-10-08T14:43:16;2.25;;;1.00;;
26953;SDS011;14508;50.924;11.600;2023-10-08T14:45:48;2.42;;;0.77;;
26953;SDS011;14508;50.924;11.600;2023-10-08T14:48:17;2.13;;;1.13;;
26953;SDS011;14508;50.924;11.600;2023-10-08T14:50:45;2.28;;;0.75;;
26953;SDS011;14508;50.924;11.600;2023-10-08T14:53:15;5.60;;;1.08;;
26953;SDS011;14508;50.924;11.600;2023-10-08T14:55:43;1.67;;;0.70;;
26953;SDS011;14508;50.924;11.600;2023-10-08T14:58:13;1.02;;;0.68;;
26953;SDS011;14508;50.924;11.600;2023-10-08T15:00:43;0.90;;;0.60;;
26953;SDS011;14508;50.924;11.600;2023-10-08T15:03:11;2.45;;;0.70;;
26953;SDS011;14508;50.924;11.600;2023-10-08T15:05:40;0.90;;;0.70;;
26953;SDS011;14508;50.924;11.600;2023-10-08T15:08:08;1.50;;;0.93;;
26953;SDS011;14508;50.924;11.600;2023-10-08T15:10:37;2.45;;;1.00;;
26953;SDS011;14508;50.924;11.600;2023-10-08T15:13:06;2.58;;;0.80;;
26953;SDS011;14508;50.924;11.600;2023-10-08T15:15:34;1.85;;;0.82;;
26953;SDS011;14508;50.924;11.600;2023-10-08T15:18:04;1.38;;;0.70;;